Time,TemperatureF,DewpointF,PressureIn,WindDirection,WindDirectionDegrees,WindSpeedMPH,WindSpeedGustMPH,Humidity,HourlyPrecipIn,Conditions,Clouds,dailyrainin,SolarRadiationWatts/m^2,SoftwareType,DateUTC
2013-01-03 00:11:00,40.0,9.0,30.15,NW,317,1.0,3.0,27,-99.99,,,-99.99,0.000000,,2013-01-03 08:11:00,
2013-01-03 00:22:00,41.0,5.0,30.15,ESE,114,1.0,3.0,22,-99.99,,,-99.99,0.000000,,2013-01-03 08:22:00,
2013-01-03 00:32:00,40.0,12.0,30.15,NNE,19,1.0,2.0,31,-99.99,,,-99.99,0.000000,,2013-01-03 08:32:00,
2013-01-03 00:42:00,35.0,20.0,30.11,NNE,15,1.0,2.0,54,-99.99,,,-99.99,0.000000,,2013-01-03 08:42:00,
2013-01-03 00:52:00,34.0,22.0,30.11,NNW,332,0.0,1.0,61,-99.99,,,-99.99,0.000000,,2013-01-03 08:52:00,
2013-01-03 01:02:00,33.0,23.0,30.15,SW,214,1.0,1.0,66,-99.99,,,-99.99,0.000000,,2013-01-03 09:02:00,
2013-01-03 01:11:00,33.0,23.0,30.15,WSW,245,0.0,1.0,66,-99.99,,,-99.99,0.000000,,2013-01-03 09:11:00,
2013-01-03 01:22:00,32.0,22.0,30.15,SSW,202,1.0,2.0,66,-99.99,,,-99.99,0.000000,,2013-01-03 09:22:00,
2013-01-03 01:33:00,31.0,23.0,30.15,North,352,1.0,2.0,72,-99.99,,,-99.99,0.000000,,2013-01-03 09:33:00,
2013-01-03 01:52:00,30.0,22.0,30.15,SSW,212,1.0,2.0,71,-99.99,,,-99.99,0.000000,,2013-01-03 09:52:00,
2013-01-03 02:02:00,29.0,21.0,30.15,SW,236,1.0,2.0,70,-99.99,,,-99.99,0.000000,,2013-01-03 10:02:00,
2013-01-03 02:22:00,29.0,19.0,30.15,SW,214,1.0,2.0,66,-99.99,,,-99.99,0.000000,,2013-01-03 10:22:00,
2013-01-03 02:32:00,29.0,19.0,30.15,SW,214,1.0,2.0,66,-99.99,,,-99.99,0.000000,,2013-01-03 10:32:00,
2013-01-03 02:42:00,29.0,20.0,30.15,NE,47,0.0,1.0,70,-99.99,,,-99.99,0.000000,,2013-01-03 10:42:00,
2013-01-03 02:52:00,29.0,20.0,30.15,NE,53,1.0,2.0,66,-99.99,,,-99.99,0.000000,,2013-01-03 10:52:00,
2013-01-03 03:02:00,30.0,21.0,30.15,NNE,31,1.0,1.0,69,-99.99,,,-99.99,0.000000,,2013-01-03 11:02:00,
2013-01-03 03:12:00,31.0,22.0,30.15,North,7,1.0,2.0,70,-99.99,,,-99.99,0.000000,,2013-01-03 11:12:00,
2013-01-03 03:22:00,37.0,12.0,30.11,ESE,102,1.0,3.0,35,-99.99,,,-99.99,0.000000,,2013-01-03 11:22:00,
2013-01-03 03:32:00,37.0,12.0,30.11,ESE,102,1.0,3.0,35,-99.99,,,-99.99,0.000000,,2013-01-03 11:32:00,
2013-01-03 03:42:00,37.0,12.0,30.11,ESE,102,1.0,3.0,35,-99.99,,,-99.99,0.000000,,2013-01-03 11:42:00,
2013-01-03 03:52:00,33.0,21.0,30.15,NE,36,1.0,2.0,60,-99.99,,,-99.99,0.000000,,2013-01-03 11:52:00,
2013-01-03 04:02:00,33.0,21.0,30.15,NE,36,1.0,2.0,60,-99.99,,,-99.99,0.000000,,2013-01-03 12:02:00,
2013-01-03 04:22:00,33.0,19.0,30.11,North,358,1.0,4.0,57,-99.99,,,-99.99,0.000000,,2013-01-03 12:22:00,
2013-01-03 04:32:00,35.0,18.0,30.11,SSW,201,1.0,2.0,50,-99.99,,,-99.99,0.000000,,2013-01-03 12:32:00,
2013-01-03 04:42:00,34.0,20.0,30.11,SW,232,1.0,2.0,56,-99.99,,,-99.99,0.000000,,2013-01-03 12:42:00,
2013-01-03 04:52:00,33.0,22.0,30.11,West,271,1.0,2.0,65,-99.99,,,-99.99,0.000000,,2013-01-03 12:52:00,
2013-01-03 05:12:00,32.0,22.0,30.11,NE,38,1.0,2.0,66,-99.99,,,-99.99,0.000000,,2013-01-03 13:12:00,
2013-01-03 05:22:00,34.0,18.0,30.11,NNE,28,1.0,3.0,51,-99.99,,,-99.99,0.000000,,2013-01-03 13:22:00,
2013-01-03 05:32:00,39.0,8.0,30.11,NE,37,1.0,3.0,27,-99.99,,,-99.99,0.000000,,2013-01-03 13:32:00,
2013-01-03 05:42:00,37.0,12.0,30.11,NNE,27,1.0,4.0,35,-99.99,,,-99.99,0.000000,,2013-01-03 13:42:00,
2013-01-03 05:52:00,38.0,11.0,30.11,NE,40,1.0,4.0,32,-99.99,,,-99.99,0.000000,,2013-01-03 13:52:00,
2013-01-03 06:02:00,36.0,14.0,30.11,NE,38,1.0,3.0,40,-99.99,,,-99.99,0.000000,,2013-01-03 14:02:00,
2013-01-03 06:12:00,39.0,5.0,30.15,ENE,57,2.0,6.0,23,-99.99,,,-99.99,0.000000,,2013-01-03 14:12:00,
2013-01-03 06:22:00,40.0,5.0,30.15,NNE,19,2.0,6.0,23,-99.99,,,-99.99,0.000000,,2013-01-03 14:22:00,
2013-01-03 06:32:00,39.0,11.0,30.15,East,79,1.0,1.0,32,-99.99,,,-99.99,0.000000,,2013-01-03 14:32:00,
2013-01-03 06:42:00,39.0,11.0,30.15,East,79,1.0,1.0,32,-99.99,,,-99.99,0.000000,,2013-01-03 14:42:00,
2013-01-03 07:02:00,34.0,19.0,30.15,ENE,62,1.0,3.0,52,-99.99,,,-99.99,0.000000,,2013-01-03 15:02:00,
2013-01-03 07:12:00,35.0,18.0,30.15,NNE,32,1.0,5.0,50,-99.99,,,-99.99,0.000000,,2013-01-03 15:12:00,
2013-01-03 07:22:00,38.0,14.0,30.15,NE,34,1.0,3.0,37,-99.99,,,-99.99,0.000000,,2013-01-03 15:22:00,
2013-01-03 07:33:00,40.0,6.0,30.15,NNE,23,1.0,3.0,24,-99.99,,,-99.99,0.000000,,2013-01-03 15:33:00,
2013-01-03 07:42:00,40.0,6.0,30.15,NNE,23,1.0,3.0,24,-99.99,,,-99.99,0.000000,,2013-01-03 15:42:00,
2013-01-03 07:53:00,41.0,5.0,30.15,NE,37,1.0,3.0,22,-99.99,,,-99.99,0.000000,,2013-01-03 15:53:00,
2013-01-03 08:02:00,41.0,7.0,30.15,SSW,193,1.0,3.0,24,-99.99,,,-99.99,10.000000,,2013-01-03 16:02:00,
2013-01-03 08:12:00,41.0,7.0,30.15,SSW,193,1.0,3.0,24,-99.99,,,-99.99,10.000000,,2013-01-03 16:12:00,
2013-01-03 08:22:00,38.0,10.0,30.18,SSW,210,1.0,4.0,31,-99.99,,,-99.99,10.000000,,2013-01-03 16:22:00,
2013-01-03 08:33:00,34.0,19.0,30.18,South,180,1.0,2.0,54,-99.99,,,-99.99,20.000000,,2013-01-03 16:33:00,
2013-01-03 08:52:00,33.0,21.0,30.18,East,89,1.0,2.0,62,-99.99,,,-99.99,20.000000,,2013-01-03 16:52:00,
2013-01-03 09:02:00,34.0,19.0,30.18,ENE,57,1.0,4.0,54,-99.99,,,-99.99,20.000000,,2013-01-03 17:02:00,
2013-01-03 09:12:00,38.0,15.0,30.18,NNE,32,1.0,3.0,38,-99.99,,,-99.99,30.000000,,2013-01-03 17:12:00,
2013-01-03 09:22:00,38.0,16.0,30.18,ENE,58,1.0,3.0,40,-99.99,,,-99.99,30.000000,,2013-01-03 17:22:00,
2013-01-03 09:32:00,38.0,16.0,30.18,ENE,58,1.0,3.0,40,-99.99,,,-99.99,30.000000,,2013-01-03 17:32:00,
2013-01-03 09:42:00,40.0,15.0,30.22,ENE,59,1.0,2.0,36,-99.99,,,-99.99,30.000000,,2013-01-03 17:42:00,
2013-01-03 09:52:00,42.0,12.0,30.22,SE,143,1.0,3.0,29,-99.99,,,-99.99,30.000000,,2013-01-03 17:52:00,
2013-01-03 10:03:00,40.0,20.0,30.22,ESE,116,1.0,2.0,44,-99.99,,,-99.99,30.000000,,2013-01-03 18:03:00,
2013-01-03 10:12:00,41.0,17.0,30.22,ENE,63,1.0,4.0,38,-99.99,,,-99.99,40.000000,,2013-01-03 18:12:00,
2013-01-03 10:22:00,43.0,14.0,30.22,SSE,149,1.0,3.0,30,-99.99,,,-99.99,40.000000,,2013-01-03 18:22:00,
2013-01-03 10:33:00,43.0,17.0,30.22,WSW,242,0.0,2.0,35,-99.99,,,-99.99,40.000000,,2013-01-03 18:33:00,
2013-01-03 10:42:00,43.0,15.0,30.22,SSW,213,1.0,4.0,31,-99.99,,,-99.99,40.000000,,2013-01-03 18:42:00,
2013-01-03 10:53:00,46.0,8.0,30.22,ESE,108,1.0,4.0,21,-99.99,,,-99.99,40.000000,,2013-01-03 18:53:00,
2013-01-03 11:02:00,46.0,9.0,30.22,ENE,71,1.0,2.0,21,-99.99,,,-99.99,40.000000,,2013-01-03 19:02:00,
2013-01-03 11:12:00,46.0,12.0,30.22,SSE,167,1.0,3.0,24,-99.99,,,-99.99,70.000000,,2013-01-03 19:12:00,
2013-01-03 11:55:00,49.0,2.0,30.22,South,175,2.0,5.0,14,-99.99,,,-99.99,260.000000,,2013-01-03 19:55:00,
2013-01-03 12:02:00,49.0,10.0,30.22,WSW,240,1.0,3.0,20,-99.99,,,-99.99,410.000000,,2013-01-03 20:02:00,
2013-01-03 12:12:00,50.0,1.0,30.22,SSW,211,1.0,3.0,13,-99.99,,,-99.99,670.000000,,2013-01-03 20:12:00,
2013-01-03 12:22:00,50.0,6.0,30.18,WNW,294,1.0,2.0,16,-99.99,,,-99.99,670.000000,,2013-01-03 20:22:00,
2013-01-03 12:33:00,51.0,2.0,30.18,SW,227,1.0,4.0,13,-99.99,,,-99.99,680.000000,,2013-01-03 20:33:00,
2013-01-03 12:42:00,49.0,7.0,30.18,SW,222,1.0,4.0,18,-99.99,,,-99.99,680.000000,,2013-01-03 20:42:00,
2013-01-03 12:53:00,48.0,9.0,30.18,SW,228,2.0,4.0,20,-99.99,,,-99.99,670.000000,,2013-01-03 20:53:00,
2013-01-03 13:02:00,46.0,11.0,30.18,South,184,1.0,2.0,24,-99.99,,,-99.99,660.000000,,2013-01-03 21:02:00,
2013-01-03 13:12:00,46.0,10.0,30.18,South,169,1.0,3.0,23,-99.99,,,-99.99,650.000000,,2013-01-03 21:12:00,
2013-01-03 13:22:00,46.0,10.0,30.18,SSW,198,1.0,2.0,23,-99.99,,,-99.99,640.000000,,2013-01-03 21:22:00,
2013-01-03 13:34:00,46.0,11.0,30.18,SSW,205,1.0,2.0,24,-99.99,,,-99.99,630.000000,,2013-01-03 21:34:00,
2013-01-03 13:40:00,46.0,11.0,30.18,South,176,1.0,3.0,24,-99.99,,,-99.99,130.000000,,2013-01-03 21:40:00,
2013-01-03 13:46:00,46.0,9.0,30.18,South,170,1.0,2.0,22,-99.99,,,-99.99,610.000000,,2013-01-03 21:46:00,
2013-01-03 13:52:00,46.0,12.0,30.18,South,172,1.0,2.0,25,-99.99,,,-99.99,600.000000,,2013-01-03 21:52:00,
2013-01-03 14:02:00,46.0,10.0,30.18,SSE,164,1.0,2.0,23,-99.99,,,-99.99,550.000000,,2013-01-03 22:02:00,
2013-01-03 14:12:00,46.0,11.0,30.18,South,176,1.0,3.0,24,-99.99,,,-99.99,130.000000,,2013-01-03 22:12:00,
2013-01-03 14:22:00,46.0,11.0,30.18,South,176,1.0,3.0,24,-99.99,,,-99.99,130.000000,,2013-01-03 22:22:00,
2013-01-03 14:32:00,46.0,11.0,30.18,South,176,1.0,3.0,24,-99.99,,,-99.99,130.000000,,2013-01-03 22:32:00,
2013-01-03 14:52:00,43.0,18.0,30.18,SSW,197,0.0,2.0,36,-99.99,,,-99.99,40.000000,,2013-01-03 22:52:00,
2013-01-03 15:02:00,42.0,21.0,30.18,SSW,198,0.0,1.0,43,-99.99,,,-99.99,40.000000,,2013-01-03 23:02:00,
2013-01-03 15:22:00,40.0,24.0,30.22,SSE,153,0.0,1.0,54,-99.99,,,-99.99,40.000000,,2013-01-03 23:22:00,
2013-01-03 15:32:00,39.0,27.0,30.22,ENE,78,1.0,1.0,61,-99.99,,,-99.99,30.000000,,2013-01-03 23:32:00,
2013-01-03 15:42:00,38.0,25.0,30.22,ENE,58,0.0,1.0,60,-99.99,,,-99.99,30.000000,,2013-01-03 23:42:00,
2013-01-03 15:52:00,37.0,25.0,30.22,ENE,71,0.0,1.0,61,-99.99,,,-99.99,30.000000,,2013-01-03 23:52:00,
2013-01-03 16:02:00,36.0,26.0,30.22,ENE,59,0.0,1.0,67,-99.99,,,-99.99,20.000000,,2013-01-04 00:02:00,
2013-01-03 16:12:00,36.0,25.0,30.22,East,92,0.0,1.0,65,-99.99,,,-99.99,20.000000,,2013-01-04 00:12:00,
2013-01-03 16:22:00,35.0,27.0,30.22,ENE,59,1.0,1.0,71,-99.99,,,-99.99,20.000000,,2013-01-04 00:22:00,
2013-01-03 16:32:00,35.0,26.0,30.22,ENE,68,1.0,1.0,69,-99.99,,,-99.99,20.000000,,2013-01-04 00:32:00,
2013-01-03 16:42:00,34.0,26.0,30.22,NE,44,0.0,1.0,71,-99.99,,,-99.99,10.000000,,2013-01-04 00:42:00,
2013-01-03 16:52:00,34.0,27.0,30.22,NE,54,1.0,2.0,76,-99.99,,,-99.99,10.000000,,2013-01-04 00:52:00,
2013-01-03 17:02:00,34.0,27.0,30.22,NE,55,0.0,1.0,78,-99.99,,,-99.99,10.000000,,2013-01-04 01:02:00,
2013-01-03 17:12:00,33.0,27.0,30.22,NNE,31,0.0,1.0,78,-99.99,,,-99.99,0.000000,,2013-01-04 01:12:00,
2013-01-03 17:22:00,33.0,27.0,30.22,NE,55,0.0,1.0,79,-99.99,,,-99.99,0.000000,,2013-01-04 01:22:00,
2013-01-03 17:32:00,33.0,27.0,30.22,NE,55,0.0,1.0,79,-99.99,,,-99.99,0.000000,,2013-01-04 01:32:00,
2013-01-03 17:42:00,32.0,27.0,30.22,NE,45,0.0,1.0,80,-99.99,,,-99.99,0.000000,,2013-01-04 01:42:00,
2013-01-03 17:52:00,31.0,26.0,30.22,NE,39,0.0,1.0,79,-99.99,,,-99.99,0.000000,,2013-01-04 01:52:00,
2013-01-03 18:02:00,30.0,24.0,30.22,NNE,30,0.0,1.0,78,-99.99,,,-99.99,0.000000,,2013-01-04 02:02:00,
2013-01-03 18:12:00,30.0,23.0,30.22,NNE,23,0.0,1.0,77,-99.99,,,-99.99,0.000000,,2013-01-04 02:12:00,
2013-01-03 18:22:00,30.0,23.0,30.22,NNE,23,0.0,1.0,77,-99.99,,,-99.99,0.000000,,2013-01-04 02:22:00,
2013-01-03 22:12:00,25.0,20.0,30.25,North,8,0.0,1.0,80,-99.99,,,-99.99,0.000000,,2013-01-04 06:12:00,
2013-01-03 22:22:00,25.0,20.0,30.25,NE,36,0.0,1.0,80,-99.99,,,-99.99,0.000000,,2013-01-04 06:22:00,
2013-01-03 22:32:00,25.0,20.0,30.25,NNE,16,0.0,1.0,80,-99.99,,,-99.99,0.000000,,2013-01-04 06:32:00,
2013-01-03 22:42:00,25.0,20.0,30.25,NNE,25,0.0,1.0,81,-99.99,,,-99.99,0.000000,,2013-01-04 06:42:00,
2013-01-03 22:52:00,25.0,20.0,30.25,NNE,15,0.0,1.0,81,-99.99,,,-99.99,0.000000,,2013-01-04 06:52:00,
2013-01-03 23:02:00,25.0,20.0,30.25,NNE,14,0.0,1.0,81,-99.99,,,-99.99,0.000000,,2013-01-04 07:02:00,
2013-01-03 23:12:00,25.0,20.0,30.25,NNE,19,0.0,0.0,81,-99.99,,,-99.99,0.000000,,2013-01-04 07:12:00,
2013-01-03 23:22:00,25.0,20.0,30.25,NNE,19,0.0,0.0,81,-99.99,,,-99.99,0.000000,,2013-01-04 07:22:00,
2013-01-03 23:32:00,24.0,20.0,30.25,NNE,13,0.0,1.0,82,-99.99,,,-99.99,0.000000,,2013-01-04 07:32:00,
2013-01-03 23:42:00,24.0,20.0,30.25,NNE,16,0.0,1.0,82,-99.99,,,-99.99,0.000000,,2013-01-04 07:42:00,
2013-01-03 23:52:00,24.0,20.0,30.25,NNE,15,0.0,1.0,83,-99.99,,,-99.99,0.000000,,2013-01-04 07:52:00,